createdAt,value
2022-09-01T00:04:32.199Z,100156.66
2022-09-01T00:09:24.600Z,100159.38
2022-09-01T00:14:30.616Z,100152.75
2022-09-01T00:19:24.188Z,100145.03
2022-09-01T00:24:17.771Z,100147.34
2022-09-01T00:29:09.650Z,100144.50
2022-09-01T00:34:01.321Z,100153.75
2022-09-01T00:38:53.488Z,100146.03
2022-09-01T00:43:55.088Z,100136.66
2022-09-01T00:48:48.885Z,100139.00
2022-09-01T00:53:44.028Z,100145.16
2022-09-01T00:58:37.794Z,100128.19
2022-09-01T01:03:30.343Z,100133.06
2022-09-01T01:08:34.469Z,100124.72
2022-09-01T01:13:28.089Z,100124.34
2022-09-01T01:18:23.546Z,100127.53
2022-09-01T01:23:40.406Z,100120.41
2022-09-01T01:28:42.098Z,100110.19
2022-09-01T01:33:48.214Z,100102.47
2022-09-01T01:38:43.251Z,100097.47
2022-09-01T01:43:35.016Z,100097.72
2022-09-01T01:48:28.356Z,100095.00
2022-09-01T01:53:20.770Z,100100.44
2022-09-01T01:58:12.664Z,100102.56
2022-09-01T02:03:05.762Z,100088.81
2022-09-01T02:08:04.005Z,100092.59
2022-09-01T02:12:56.387Z,100084.06
2022-09-01T02:17:48.910Z,100096.81
2022-09-01T02:22:44.408Z,100085.34
2022-09-01T02:27:39.582Z,100080.34
2022-09-01T02:32:32.099Z,100078.66
2022-09-01T02:37:25.821Z,100077.03
2022-09-01T02:42:17.491Z,100063.63
2022-09-01T02:47:10.031Z,100072.38
2022-09-01T02:52:02.835Z,100064.44
2022-09-01T02:56:54.853Z,100073.06
2022-09-01T03:01:47.609Z,100065.13
2022-09-01T03:06:40.387Z,100056.59
2022-09-01T03:11:35.302Z,100056.81
2022-09-01T03:16:28.469Z,100044.47
2022-09-01T03:21:21.249Z,100044.34
2022-09-01T03:26:14.512Z,100034.50
2022-09-01T03:31:07.431Z,100039.94
2022-09-01T03:35:59.522Z,100046.44
2022-09-01T03:40:53.448Z,100040.75
2022-09-01T03:45:46.158Z,100043.50
2022-09-01T03:50:45.312Z,100034.84
2022-09-01T03:55:38.255Z,100033.56
2022-09-01T04:00:36.870Z,100024.56
2022-09-01T04:05:33.877Z,100026.22
2022-09-01T04:10:25.714Z,100024.56
2022-09-01T04:15:18.547Z,100023.34
2022-09-01T04:20:10.403Z,100013.50
2022-09-01T04:25:01.983Z,100013.75
2022-09-01T04:29:57.540Z,100006.41
2022-09-01T04:34:49.621Z,99998.47
2022-09-01T04:39:51.370Z,100005.56
2022-09-01T04:44:45.470Z,100007.69
2022-09-01T04:49:37.743Z,100002.69
2022-09-01T04:54:30.765Z,99999.97
2022-09-01T04:59:24.701Z,100006.03
2022-09-01T05:04:27.555Z,100001.88
2022-09-01T05:09:20.287Z,99990.97
2022-09-01T05:14:18.522Z,99989.91
2022-09-01T05:19:14.968Z,99992.41
2022-09-01T05:24:10.404Z,99986.94
2022-09-01T05:29:10.713Z,99979.63
2022-09-01T05:34:03.346Z,99994.53
2022-09-01T05:38:54.955Z,99986.34
2022-09-01T05:43:49.820Z,99991.34
2022-09-01T05:48:42.265Z,99983.75
2022-09-01T05:53:34.223Z,99988.97
2022-09-01T05:59:22.321Z,99976.34
2022-09-01T06:03:40.755Z,99973.03
2022-09-01T06:08:32.366Z,99979.50
2022-09-01T06:13:27.447Z,99973.94
2022-09-01T06:18:19.706Z,99979.31
2022-09-01T06:23:15.641Z,99985.03
2022-09-01T06:28:08.581Z,99984.47
2022-09-01T06:33:02.241Z,99981.97
2022-09-01T06:37:54.311Z,99979.91
2022-09-01T06:42:48.303Z,99980.50
2022-09-01T06:47:40.467Z,99977.16
2022-09-01T06:53:31.928Z,99972.03
2022-09-01T06:58:13.997Z,99981.94
2022-09-01T07:03:09.532Z,99976.16
2022-09-01T07:08:08.527Z,99970.16
2022-09-01T07:13:09.013Z,99974.56
2022-09-01T07:18:00.803Z,99975.66
2022-09-01T07:23:09.419Z,99970.78
2022-09-01T07:28:01.563Z,99981.03
2022-09-01T07:32:54.183Z,99983.19
2022-09-01T07:42:55.722Z,99975.00
2022-09-01T07:47:54.965Z,99969.31
2022-09-01T07:52:49.730Z,99969.06
2022-09-01T08:02:34.574Z,99959.09
2022-09-01T08:07:26.383Z,99973.19
2022-09-01T08:12:18.255Z,99975.34
2022-09-01T08:17:34.085Z,99962.97
2022-09-01T08:22:24.319Z,99974.28
2022-09-01T08:27:16.502Z,99959.69
2022-09-01T08:32:08.285Z,99974.00
2022-09-01T08:37:00.140Z,99962.16
2022-09-01T08:42:06.457Z,99967.63
2022-09-01T08:47:07.467Z,99955.38
2022-09-01T08:52:03.379Z,99947.78
2022-09-01T08:56:59.511Z,99941.41
2022-09-01T09:02:20.560Z,99935.06
2022-09-01T09:07:39.088Z,99935.88
2022-09-01T09:12:53.925Z,99917.81
2022-09-01T09:18:00.376Z,99909.00
2022-09-01T09:22:53.619Z,99881.84
2022-09-01T09:27:47.967Z,99891.56
2022-09-01T09:38:21.499Z,99908.47
2022-09-01T09:43:15.973Z,99886.72
2022-09-01T09:48:25.937Z,99894.44
2022-09-01T09:53:30.088Z,99909.28
2022-09-01T09:58:26.601Z,99898.78
2022-09-01T10:03:42.358Z,99891.53
2022-09-01T10:08:45.601Z,99895.34
2022-09-01T10:13:37.403Z,99906.00
2022-09-01T10:18:40.085Z,99914.25
2022-09-01T10:23:34.787Z,99917.38
2022-09-01T10:28:31.109Z,99900.72
2022-09-01T10:33:22.772Z,99900.50
2022-09-01T10:38:20.737Z,99897.81
2022-09-01T10:43:37.985Z,99896.16
2022-09-01T10:48:36.506Z,99884.09
2022-09-01T10:53:40.766Z,99893.97
2022-09-01T11:04:01.345Z,99880.41
2022-09-01T11:09:00.973Z,99876.00
2022-09-01T11:13:56.026Z,99858.53
2022-09-01T11:18:47.871Z,99857.31
2022-09-01T11:23:41.270Z,99850.84
2022-09-01T11:28:38.839Z,99829.81
2022-09-01T11:33:52.379Z,99857.13
2022-09-01T11:38:56.697Z,99840.31
2022-09-01T11:43:48.337Z,99827.84
2022-09-01T11:48:47.121Z,99823.94
2022-09-01T11:53:44.656Z,99821.97
2022-09-01T11:58:39.451Z,99825.47
2022-09-01T12:03:31.700Z,99831.34
2022-09-01T12:08:24.302Z,99829.88
2022-09-01T12:13:22.384Z,99826.78
2022-09-01T12:18:54.015Z,99823.59
2022-09-01T12:23:46.311Z,99814.44
2022-09-01T12:28:41.344Z,99818.72
2022-09-01T12:33:34.068Z,99811.41
2022-09-01T12:38:29.036Z,99820.09
2022-09-01T12:43:37.328Z,99796.09
2022-09-01T12:48:34.790Z,99800.53
2022-09-01T12:53:30.594Z,99804.75
2022-09-01T12:58:25.880Z,99795.94
2022-09-01T13:03:18.238Z,99781.75
2022-09-01T13:08:14.550Z,99777.50
2022-09-01T13:13:07.992Z,99775.94
2022-09-01T13:17:59.758Z,99772.97
2022-09-01T13:22:52.284Z,99768.25
2022-09-01T13:27:44.817Z,99755.31
2022-09-01T13:32:36.737Z,99749.56
2022-09-01T13:37:29.481Z,99751.25
2022-09-01T13:42:21.530Z,99737.53
2022-09-01T13:47:29.927Z,99732.03
2022-09-01T13:52:21.953Z,99729.88
2022-09-01T13:57:14.618Z,99729.94
2022-09-01T14:02:06.412Z,99721.88
2022-09-01T14:06:59.813Z,99714.25
2022-09-01T14:11:55.396Z,99714.88
2022-09-01T14:16:47.175Z,99709.56
2022-09-01T14:21:39.511Z,99700.88
2022-09-01T14:26:31.373Z,99691.97
2022-09-01T14:31:23.089Z,99677.56
2022-09-01T14:36:22.505Z,99697.16
2022-09-01T14:41:15.414Z,99685.03
2022-09-01T14:46:10.913Z,99662.88
2022-09-01T14:51:03.164Z,99676.59
2022-09-01T14:55:56.955Z,99677.59
2022-09-01T15:00:48.757Z,99673.47
2022-09-01T15:05:40.999Z,99659.34
2022-09-01T15:10:32.862Z,99656.50
2022-09-01T15:15:25.666Z,99653.22
2022-09-01T15:20:36.020Z,99653.00
2022-09-01T15:25:27.655Z,99652.91
2022-09-01T15:30:20.336Z,99641.25
2022-09-01T15:35:13.582Z,99644.13
2022-09-01T15:40:06.733Z,99625.56
2022-09-01T15:44:58.382Z,99626.31
2022-09-01T15:49:50.114Z,99623.91
2022-09-01T15:54:42.411Z,99621.03
2022-09-01T15:59:34.330Z,99605.84
2022-09-01T16:04:27.973Z,99606.38
2022-09-01T16:09:21.313Z,99601.44
2022-09-01T16:14:14.188Z,99595.78
2022-09-01T16:19:28.381Z,99596.69
2022-09-01T16:24:20.458Z,99593.94
2022-09-01T16:29:40.049Z,99590.25
2022-09-01T16:34:35.283Z,99591.88
2022-09-01T16:39:48.211Z,99592.78
2022-09-01T16:44:47.387Z,99592.09
2022-09-01T16:49:51.183Z,99583.06
2022-09-01T16:55:01.509Z,99586.66
2022-09-01T16:59:59.754Z,99584.09
2022-09-01T17:05:01.139Z,99595.66
2022-09-01T17:10:31.278Z,99593.78
2022-09-01T17:15:41.317Z,99590.25
2022-09-01T17:20:40.140Z,99593.56
2022-09-01T17:25:37.689Z,99580.66
2022-09-01T17:30:35.505Z,99570.72
2022-09-01T17:35:36.949Z,99572.41
2022-09-01T17:40:45.023Z,99582.16
2022-09-01T17:45:45.710Z,99578.13
2022-09-01T17:55:54.864Z,99575.56
2022-09-01T18:00:57.148Z,99581.19
2022-09-01T18:06:13.478Z,99582.72
2022-09-01T18:11:11.550Z,99590.56
2022-09-01T18:16:09.297Z,99578.00
2022-09-01T18:21:24.405Z,99576.44
2022-09-01T18:26:45.113Z,99575.13
2022-09-01T18:32:01.775Z,99579.63
2022-09-01T18:37:02.567Z,99588.22
2022-09-01T18:42:12.992Z,99583.91
2022-09-01T18:47:09.128Z,99583.97
2022-09-01T18:52:11.343Z,99583.19
2022-09-01T18:57:08.397Z,99589.31
2022-09-01T19:02:34.893Z,99583.88
2022-09-01T19:07:26.730Z,99579.53
2022-09-01T19:12:36.511Z,99579.56
2022-09-01T19:17:31.014Z,99579.56
2022-09-01T19:22:37.351Z,99589.22
2022-09-01T19:27:32.190Z,99581.84
2022-09-01T19:32:27.692Z,99595.34
2022-09-01T19:37:20.471Z,99585.75
2022-09-01T19:42:39.600Z,99582.47
2022-09-01T19:47:50.435Z,99592.94
2022-09-01T19:52:56.863Z,99595.69
2022-09-01T19:58:10.024Z,99595.72
2022-09-01T20:03:13.161Z,99605.63
2022-09-01T20:08:20.660Z,99592.66
2022-09-01T20:13:38.382Z,99601.75
2022-09-01T20:18:36.568Z,99605.03
2022-09-01T20:23:42.707Z,99603.09
2022-09-01T20:28:41.292Z,99602.56
2022-09-01T20:33:47.617Z,99600.59
2022-09-01T20:39:04.047Z,99598.94
2022-09-01T20:43:57.476Z,99593.72
2022-09-01T20:48:50.195Z,99590.97
2022-09-01T20:53:47.563Z,99591.53
2022-09-01T20:58:46.718Z,99584.91
2022-09-01T21:04:01.445Z,99581.06
2022-09-01T21:09:26.178Z,99573.63
2022-09-01T21:14:36.626Z,99576.09
2022-09-01T21:19:51.878Z,99577.44
2022-09-01T21:24:43.721Z,99566.19
2022-09-01T21:30:04.014Z,99549.19
2022-09-01T21:34:56.497Z,99546.97
2022-09-01T21:39:51.766Z,99550.25
2022-09-01T21:44:44.684Z,99539.81
2022-09-01T21:49:36.805Z,99553.22
2022-09-01T21:54:28.473Z,99549.38
2022-09-01T21:59:20.546Z,99559.78
2022-09-01T22:04:14.024Z,99557.31
2022-09-01T22:09:20.878Z,99550.44
2022-09-01T22:14:13.324Z,99561.94
2022-09-01T22:19:05.734Z,99563.84
2022-09-01T22:23:59.544Z,99557.25
2022-09-01T22:28:53.816Z,99555.56
2022-09-01T22:33:47.103Z,99564.06
2022-09-01T22:38:38.744Z,99562.97
2022-09-01T22:43:30.801Z,99565.13
2022-09-01T22:48:25.715Z,99556.91
2022-09-01T22:53:20.678Z,99561.56
2022-09-01T22:58:13.477Z,99557.69
2022-09-01T23:03:05.182Z,99562.91
2022-09-01T23:07:59.069Z,99564.50
2022-09-01T23:12:50.903Z,99556.56
2022-09-01T23:17:42.598Z,99556.81
2022-09-01T23:22:34.485Z,99552.69
2022-09-01T23:27:26.096Z,99553.78
2022-09-01T23:32:17.824Z,99562.53
2022-09-01T23:37:09.453Z,99542.22
2022-09-01T23:42:01.136Z,99546.91
2022-09-01T23:46:52.725Z,99544.41
2022-09-01T23:51:45.583Z,99543.84
2022-09-01T23:56:38.146Z,99538.88
